sensor_id;sensor_type;location;lat;lon;timestamp;P1;durP1;ratioP1;P2;durP2;ratioP2
74995;SDS011;63545;51.690;5.202;2023-03-23T00:01:16;6.18;;;3.70;;
74995;SDS011;63545;51.690;5.202;2023-03-23T00:03:46;10.05;;;4.20;;
74995;SDS011;63545;51.690;5.202;2023-03-23T00:06:13;7.70;;;3.60;;
74995;SDS011;63545;51.690;5.202;2023-03-23T00:08:42;8.00;;;3.50;;
74995;SDS011;63545;51.690;5.202;2023-03-23T00:11:13;6.35;;;3.83;;
74995;SDS011;63545;51.690;5.202;2023-03-23T00:13:40;9.13;;;3.63;;
74995;SDS011;63545;51.690;5.202;2023-03-23T00:16:09;6.97;;;3.90;;
74995;SDS011;63545;51.690;5.202;2023-03-23T00:18:46;5.67;;;3.17;;
74995;SDS011;63545;51.690;5.202;2023-03-23T00:21:12;8.70;;;3.72;;
74995;SDS011;63545;51.690;5.202;2023-03-23T00:23:39;8.73;;;3.92;;
74995;SDS011;63545;51.690;5.202;2023-03-23T00:26:05;7.75;;;3.80;;
74995;SDS011;63545;51.690;5.202;2023-03-23T00:28:30;8.67;;;4.43;;
74995;SDS011;63545;51.690;5.202;2023-03-23T00:31:00;7.43;;;3.80;;
74995;SDS011;63545;51.690;5.202;2023-03-23T00:33:32;8.40;;;4.35;;
74995;SDS011;63545;51.690;5.202;2023-03-23T00:36:02;9.52;;;4.50;;
74995;SDS011;63545;51.690;5.202;2023-03-23T00:38:35;9.25;;;4.15;;
74995;SDS011;63545;51.690;5.202;2023-03-23T00:41:01;8.47;;;4.33;;
74995;SDS011;63545;51.690;5.202;2023-03-23T00:43:27;7.97;;;4.55;;
74995;SDS011;63545;51.690;5.202;2023-03-23T00:45:54;7.78;;;4.22;;
74995;SDS011;63545;51.690;5.202;2023-03-23T00:48:20;7.05;;;4.65;;
74995;SDS011;63545;51.690;5.202;2023-03-23T00:50:46;8.00;;;4.93;;
74995;SDS011;63545;51.690;5.202;2023-03-23T00:53:12;8.25;;;4.80;;
74995;SDS011;63545;51.690;5.202;2023-03-23T00:55:39;7.68;;;5.18;;
74995;SDS011;63545;51.690;5.202;2023-03-23T00:58:06;7.93;;;4.97;;
74995;SDS011;63545;51.690;5.202;2023-03-23T01:00:31;11.60;;;5.47;;
74995;SDS011;63545;51.690;5.202;2023-03-23T01:02:56;7.88;;;4.90;;
74995;SDS011;63545;51.690;5.202;2023-03-23T01:05:22;7.93;;;4.37;;
74995;SDS011;63545;51.690;5.202;2023-03-23T01:07:47;7.87;;;4.80;;
74995;SDS011;63545;51.690;5.202;2023-03-23T01:10:14;9.10;;;4.83;;
74995;SDS011;63545;51.690;5.202;2023-03-23T01:12:43;8.63;;;4.70;;
74995;SDS011;63545;51.690;5.202;2023-03-23T01:15:12;8.02;;;4.72;;
74995;SDS011;63545;51.690;5.202;2023-03-23T01:17:40;6.40;;;4.40;;
74995;SDS011;63545;51.690;5.202;2023-03-23T01:20:05;6.97;;;4.93;;
74995;SDS011;63545;51.690;5.202;2023-03-23T01:22:32;7.97;;;4.63;;
74995;SDS011;63545;51.690;5.202;2023-03-23T01:24:57;7.28;;;4.88;;
74995;SDS011;63545;51.690;5.202;2023-03-23T01:27:22;7.77;;;4.37;;
74995;SDS011;63545;51.690;5.202;2023-03-23T01:29:48;9.57;;;4.10;;
74995;SDS011;63545;51.690;5.202;2023-03-23T01:32:13;7.43;;;4.25;;
74995;SDS011;63545;51.690;5.202;2023-03-23T01:34:39;10.00;;;4.67;;
74995;SDS011;63545;51.690;5.202;2023-03-23T01:37:04;9.10;;;4.80;;
74995;SDS011;63545;51.690;5.202;2023-03-23T01:39:30;9.57;;;4.80;;
74995;SDS011;63545;51.690;5.202;2023-03-23T01:41:55;8.03;;;5.47;;
74995;SDS011;63545;51.690;5.202;2023-03-23T01:46:46;7.57;;;5.20;;
74995;SDS011;63545;51.690;5.202;2023-03-23T01:49:12;7.37;;;5.17;;
74995;SDS011;63545;51.690;5.202;2023-03-23T01:51:40;7.27;;;4.87;;
74995;SDS011;63545;51.690;5.202;2023-03-23T01:54:09;8.63;;;4.35;;
74995;SDS011;63545;51.690;5.202;2023-03-23T01:56:43;6.90;;;4.97;;
74995;SDS011;63545;51.690;5.202;2023-03-23T01:59:11;6.82;;;4.90;;
74995;SDS011;63545;51.690;5.202;2023-03-23T02:01:37;6.65;;;4.85;;
74995;SDS011;63545;51.690;5.202;2023-03-23T02:04:05;7.30;;;4.57;;
74995;SDS011;63545;51.690;5.202;2023-03-23T02:06:31;6.55;;;4.45;;
74995;SDS011;63545;51.690;5.202;2023-03-23T02:08:56;7.77;;;5.20;;
74995;SDS011;63545;51.690;5.202;2023-03-23T02:11:22;8.45;;;4.78;;
74995;SDS011;63545;51.690;5.202;2023-03-23T02:13:48;6.35;;;4.28;;
74995;SDS011;63545;51.690;5.202;2023-03-23T02:25:08;5.93;;;4.35;;
74995;SDS011;63545;51.690;5.202;2023-03-23T02:33:45;8.87;;;4.07;;
74995;SDS011;63545;51.690;5.202;2023-03-23T02:36:20;7.60;;;4.05;;
74995;SDS011;63545;51.690;5.202;2023-03-23T02:38:53;8.10;;;4.07;;
74995;SDS011;63545;51.690;5.202;2023-03-23T02:41:24;11.00;;;4.32;;
74995;SDS011;63545;51.690;5.202;2023-03-23T02:43:53;7.85;;;4.00;;
74995;SDS011;63545;51.690;5.202;2023-03-23T02:46:20;6.73;;;3.80;;
74995;SDS011;63545;51.690;5.202;2023-03-23T02:48:46;5.72;;;3.88;;
74995;SDS011;63545;51.690;5.202;2023-03-23T02:51:13;8.05;;;4.38;;
74995;SDS011;63545;51.690;5.202;2023-03-23T02:53:40;6.32;;;3.85;;
74995;SDS011;63545;51.690;5.202;2023-03-23T02:56:07;5.38;;;3.28;;
74995;SDS011;63545;51.690;5.202;2023-03-23T02:58:34;5.47;;;3.50;;
74995;SDS011;63545;51.690;5.202;2023-03-23T03:01:10;6.35;;;3.70;;
74995;SDS011;63545;51.690;5.202;2023-03-23T03:03:41;5.88;;;3.50;;
74995;SDS011;63545;51.690;5.202;2023-03-23T03:06:14;8.20;;;3.70;;
74995;SDS011;63545;51.690;5.202;2023-03-23T03:11:16;9.17;;;3.87;;
74995;SDS011;63545;51.690;5.202;2023-03-23T03:13:48;6.53;;;3.42;;
74995;SDS011;63545;51.690;5.202;2023-03-23T03:18:57;4.78;;;2.85;;
74995;SDS011;63545;51.690;5.202;2023-03-23T03:21:27;6.25;;;3.30;;
74995;SDS011;63545;51.690;5.202;2023-03-23T03:23:56;7.82;;;3.42;;
74995;SDS011;63545;51.690;5.202;2023-03-23T03:26:24;5.80;;;3.38;;
74995;SDS011;63545;51.690;5.202;2023-03-23T03:28:51;5.70;;;3.10;;
74995;SDS011;63545;51.690;5.202;2023-03-23T03:31:18;3.72;;;3.00;;
74995;SDS011;63545;51.690;5.202;2023-03-23T03:33:45;5.60;;;3.17;;
74995;SDS011;63545;51.690;5.202;2023-03-23T03:36:18;6.88;;;3.30;;
74995;SDS011;63545;51.690;5.202;2023-03-23T03:38:46;5.53;;;3.53;;
74995;SDS011;63545;51.690;5.202;2023-03-23T03:41:13;6.10;;;3.20;;
74995;SDS011;63545;51.690;5.202;2023-03-23T03:43:39;6.18;;;3.40;;
74995;SDS011;63545;51.690;5.202;2023-03-23T03:46:05;7.50;;;3.40;;
74995;SDS011;63545;51.690;5.202;2023-03-23T03:48:30;7.17;;;3.57;;
74995;SDS011;63545;51.690;5.202;2023-03-23T03:50:55;6.17;;;3.10;;
74995;SDS011;63545;51.690;5.202;2023-03-23T03:53:22;7.73;;;3.00;;
74995;SDS011;63545;51.690;5.202;2023-03-23T03:55:48;6.38;;;3.40;;
74995;SDS011;63545;51.690;5.202;2023-03-23T03:58:14;5.68;;;2.90;;
74995;SDS011;63545;51.690;5.202;2023-03-23T04:00:40;7.10;;;2.95;;
74995;SDS011;63545;51.690;5.202;2023-03-23T04:03:07;6.47;;;2.85;;
74995;SDS011;63545;51.690;5.202;2023-03-23T04:05:32;6.63;;;2.87;;
74995;SDS011;63545;51.690;5.202;2023-03-23T04:07:58;11.03;;;3.50;;
74995;SDS011;63545;51.690;5.202;2023-03-23T04:10:26;4.88;;;2.70;;
74995;SDS011;63545;51.690;5.202;2023-03-23T04:12:54;10.43;;;2.83;;
74995;SDS011;63545;51.690;5.202;2023-03-23T04:15:19;9.50;;;2.73;;
74995;SDS011;63545;51.690;5.202;2023-03-23T04:17:44;7.90;;;2.97;;
74995;SDS011;63545;51.690;5.202;2023-03-23T04:20:10;9.47;;;2.70;;
74995;SDS011;63545;51.690;5.202;2023-03-23T04:22:42;8.02;;;2.78;;
74995;SDS011;63545;51.690;5.202;2023-03-23T04:25:14;9.05;;;2.60;;
74995;SDS011;63545;51.690;5.202;2023-03-23T04:27:40;8.43;;;2.63;;
74995;SDS011;63545;51.690;5.202;2023-03-23T04:30:08;5.78;;;2.28;;
74995;SDS011;63545;51.690;5.202;2023-03-23T04:32:34;9.60;;;2.43;;
74995;SDS011;63545;51.690;5.202;2023-03-23T04:35:00;8.65;;;2.40;;
74995;SDS011;63545;51.690;5.202;2023-03-23T04:37:26;10.50;;;2.97;;
74995;SDS011;63545;51.690;5.202;2023-03-23T04:39:56;8.65;;;2.58;;
74995;SDS011;63545;51.690;5.202;2023-03-23T04:42:32;7.38;;;2.28;;
74995;SDS011;63545;51.690;5.202;2023-03-23T04:44:57;11.57;;;2.60;;
74995;SDS011;63545;51.690;5.202;2023-03-23T04:47:24;13.52;;;2.80;;
74995;SDS011;63545;51.690;5.202;2023-03-23T04:49:50;6.27;;;2.43;;
74995;SDS011;63545;51.690;5.202;2023-03-23T04:52:16;8.93;;;2.40;;
74995;SDS011;63545;51.690;5.202;2023-03-23T04:54:42;9.73;;;2.77;;
74995;SDS011;63545;51.690;5.202;2023-03-23T04:57:07;9.67;;;2.43;;
74995;SDS011;63545;51.690;5.202;2023-03-23T04:59:33;8.40;;;2.27;;
74995;SDS011;63545;51.690;5.202;2023-03-23T05:01:59;9.23;;;2.70;;
74995;SDS011;63545;51.690;5.202;2023-03-23T05:04:24;8.80;;;2.23;;
74995;SDS011;63545;51.690;5.202;2023-03-23T05:06:50;7.57;;;2.10;;
74995;SDS011;63545;51.690;5.202;2023-03-23T05:09:16;6.03;;;1.73;;
74995;SDS011;63545;51.690;5.202;2023-03-23T05:11:42;7.53;;;1.90;;
74995;SDS011;63545;51.690;5.202;2023-03-23T05:14:07;8.20;;;2.27;;
74995;SDS011;63545;51.690;5.202;2023-03-23T05:16:32;9.57;;;2.27;;
74995;SDS011;63545;51.690;5.202;2023-03-23T05:18:58;8.30;;;1.93;;
74995;SDS011;63545;51.690;5.202;2023-03-23T05:21:23;7.33;;;2.23;;
74995;SDS011;63545;51.690;5.202;2023-03-23T05:23:49;8.02;;;2.10;;
74995;SDS011;63545;51.690;5.202;2023-03-23T05:26:20;7.05;;;2.10;;
74995;SDS011;63545;51.690;5.202;2023-03-23T05:28:46;9.30;;;2.33;;
74995;SDS011;63545;51.690;5.202;2023-03-23T05:31:11;6.30;;;2.30;;
74995;SDS011;63545;51.690;5.202;2023-03-23T05:33:38;9.40;;;2.20;;
74995;SDS011;63545;51.690;5.202;2023-03-23T05:36:04;6.05;;;2.30;;
74995;SDS011;63545;51.690;5.202;2023-03-23T05:38:31;6.70;;;1.85;;
74995;SDS011;63545;51.690;5.202;2023-03-23T05:41:00;6.93;;;2.00;;
74995;SDS011;63545;51.690;5.202;2023-03-23T05:43:26;8.75;;;2.30;;
74995;SDS011;63545;51.690;5.202;2023-03-23T05:45:51;10.73;;;2.33;;
74995;SDS011;63545;51.690;5.202;2023-03-23T05:48:17;7.17;;;2.03;;
74995;SDS011;63545;51.690;5.202;2023-03-23T05:50:42;9.70;;;2.37;;
74995;SDS011;63545;51.690;5.202;2023-03-23T05:53:07;8.73;;;2.20;;
74995;SDS011;63545;51.690;5.202;2023-03-23T05:55:33;7.10;;;2.80;;
74995;SDS011;63545;51.690;5.202;2023-03-23T05:57:58;6.53;;;2.27;;
74995;SDS011;63545;51.690;5.202;2023-03-23T06:00:23;10.60;;;2.57;;
74995;SDS011;63545;51.690;5.202;2023-03-23T06:02:49;5.13;;;1.83;;
74995;SDS011;63545;51.690;5.202;2023-03-23T06:05:16;8.25;;;2.28;;
74995;SDS011;63545;51.690;5.202;2023-03-23T06:07:42;8.40;;;2.67;;
74995;SDS011;63545;51.690;5.202;2023-03-23T06:10:08;11.50;;;2.45;;
74995;SDS011;63545;51.690;5.202;2023-03-23T06:12:34;9.35;;;2.22;;
74995;SDS011;63545;51.690;5.202;2023-03-23T06:15:00;8.53;;;2.50;;
74995;SDS011;63545;51.690;5.202;2023-03-23T06:17:25;10.73;;;2.43;;
74995;SDS011;63545;51.690;5.202;2023-03-23T06:19:51;14.67;;;2.80;;
74995;SDS011;63545;51.690;5.202;2023-03-23T06:22:17;8.80;;;2.28;;
74995;SDS011;63545;51.690;5.202;2023-03-23T06:24:43;10.03;;;2.27;;
74995;SDS011;63545;51.690;5.202;2023-03-23T06:27:09;8.88;;;2.28;;
74995;SDS011;63545;51.690;5.202;2023-03-23T06:29:35;11.10;;;2.40;;
74995;SDS011;63545;51.690;5.202;2023-03-23T06:32:02;15.03;;;2.43;;
74995;SDS011;63545;51.690;5.202;2023-03-23T06:34:28;9.90;;;2.70;;
74995;SDS011;63545;51.690;5.202;2023-03-23T06:36:54;8.70;;;2.58;;
74995;SDS011;63545;51.690;5.202;2023-03-23T06:39:20;16.23;;;2.95;;
74995;SDS011;63545;51.690;5.202;2023-03-23T06:41:47;11.75;;;2.72;;
74995;SDS011;63545;51.690;5.202;2023-03-23T06:44:12;21.10;;;3.53;;
74995;SDS011;63545;51.690;5.202;2023-03-23T06:46:38;14.03;;;2.97;;
74995;SDS011;63545;51.690;5.202;2023-03-23T06:49:05;12.35;;;3.60;;
74995;SDS011;63545;51.690;5.202;2023-03-23T06:51:30;23.23;;;3.90;;
74995;SDS011;63545;51.690;5.202;2023-03-23T06:53:56;17.17;;;3.70;;
74995;SDS011;63545;51.690;5.202;2023-03-23T06:56:22;18.38;;;3.85;;
74995;SDS011;63545;51.690;5.202;2023-03-23T06:58:48;16.10;;;3.67;;
74995;SDS011;63545;51.690;5.202;2023-03-23T07:01:13;10.97;;;3.90;;
74995;SDS011;63545;51.690;5.202;2023-03-23T07:03:40;12.10;;;3.80;;
74995;SDS011;63545;51.690;5.202;2023-03-23T07:06:06;14.85;;;3.53;;
74995;SDS011;63545;51.690;5.202;2023-03-23T07:08:32;12.85;;;3.60;;
74995;SDS011;63545;51.690;5.202;2023-03-23T07:10:57;14.10;;;4.00;;
74995;SDS011;63545;51.690;5.202;2023-03-23T07:13:23;19.37;;;4.33;;
74995;SDS011;63545;51.690;5.202;2023-03-23T07:15:48;16.98;;;3.88;;
74995;SDS011;63545;51.690;5.202;2023-03-23T07:18:15;25.10;;;4.33;;
74995;SDS011;63545;51.690;5.202;2023-03-23T07:20:41;18.52;;;4.00;;
74995;SDS011;63545;51.690;5.202;2023-03-23T07:23:06;11.77;;;3.60;;
74995;SDS011;63545;51.690;5.202;2023-03-23T07:25:32;18.48;;;3.95;;
74995;SDS011;63545;51.690;5.202;2023-03-23T07:27:59;23.65;;;4.25;;
74995;SDS011;63545;51.690;5.202;2023-03-23T07:30:25;13.48;;;3.53;;
74995;SDS011;63545;51.690;5.202;2023-03-23T07:32:51;14.17;;;3.53;;
74995;SDS011;63545;51.690;5.202;2023-03-23T07:35:16;16.27;;;3.70;;
74995;SDS011;63545;51.690;5.202;2023-03-23T07:37:42;16.50;;;3.70;;
74995;SDS011;63545;51.690;5.202;2023-03-23T07:40:07;16.00;;;3.40;;
74995;SDS011;63545;51.690;5.202;2023-03-23T07:42:33;13.27;;;3.40;;
74995;SDS011;63545;51.690;5.202;2023-03-23T07:44:59;11.77;;;3.50;;
74995;SDS011;63545;51.690;5.202;2023-03-23T07:47:25;11.13;;;3.27;;
74995;SDS011;63545;51.690;5.202;2023-03-23T07:49:51;6.17;;;3.20;;
74995;SDS011;63545;51.690;5.202;2023-03-23T07:52:16;7.27;;;2.80;;
74995;SDS011;63545;51.690;5.202;2023-03-23T07:54:42;11.90;;;2.97;;
74995;SDS011;63545;51.690;5.202;2023-03-23T07:57:08;12.33;;;3.57;;
74995;SDS011;63545;51.690;5.202;2023-03-23T07:59:33;6.10;;;2.30;;
74995;SDS011;63545;51.690;5.202;2023-03-23T08:01:58;9.77;;;2.90;;
74995;SDS011;63545;51.690;5.202;2023-03-23T08:04:24;10.70;;;2.50;;
74995;SDS011;63545;51.690;5.202;2023-03-23T08:06:49;8.83;;;2.47;;
74995;SDS011;63545;51.690;5.202;2023-03-23T08:09:15;7.32;;;2.60;;
74995;SDS011;63545;51.690;5.202;2023-03-23T08:11:40;8.73;;;2.60;;
74995;SDS011;63545;51.690;5.202;2023-03-23T08:14:06;6.17;;;2.30;;
74995;SDS011;63545;51.690;5.202;2023-03-23T08:16:32;7.07;;;2.20;;
74995;SDS011;63545;51.690;5.202;2023-03-23T08:18:58;6.97;;;2.10;;
74995;SDS011;63545;51.690;5.202;2023-03-23T08:21:23;5.63;;;1.83;;
74995;SDS011;63545;51.690;5.202;2023-03-23T08:23:49;6.30;;;2.00;;
74995;SDS011;63545;51.690;5.202;2023-03-23T08:26:14;7.13;;;1.90;;
74995;SDS011;63545;51.690;5.202;2023-03-23T08:28:42;7.53;;;1.98;;
74995;SDS011;63545;51.690;5.202;2023-03-23T08:31:09;6.13;;;1.90;;
74995;SDS011;63545;51.690;5.202;2023-03-23T08:33:36;6.67;;;2.20;;
74995;SDS011;63545;51.690;5.202;2023-03-23T08:36:02;4.80;;;2.08;;
74995;SDS011;63545;51.690;5.202;2023-03-23T08:38:28;6.93;;;2.03;;
74995;SDS011;63545;51.690;5.202;2023-03-23T08:40:58;4.53;;;1.70;;
74995;SDS011;63545;51.690;5.202;2023-03-23T08:43:24;8.13;;;1.92;;
74995;SDS011;63545;51.690;5.202;2023-03-23T08:45:50;4.87;;;1.80;;
74995;SDS011;63545;51.690;5.202;2023-03-23T08:48:16;6.47;;;1.70;;
74995;SDS011;63545;51.690;5.202;2023-03-23T08:50:42;6.32;;;2.00;;
74995;SDS011;63545;51.690;5.202;2023-03-23T08:53:08;4.87;;;1.80;;
74995;SDS011;63545;51.690;5.202;2023-03-23T08:55:33;10.07;;;1.80;;
74995;SDS011;63545;51.690;5.202;2023-03-23T08:57:58;6.80;;;1.80;;
74995;SDS011;63545;51.690;5.202;2023-03-23T09:00:24;7.97;;;2.03;;
74995;SDS011;63545;51.690;5.202;2023-03-23T09:02:51;5.53;;;1.92;;
74995;SDS011;63545;51.690;5.202;2023-03-23T09:05:19;6.78;;;1.92;;
74995;SDS011;63545;51.690;5.202;2023-03-23T09:07:47;7.38;;;1.90;;
74995;SDS011;63545;51.690;5.202;2023-03-23T09:10:14;8.57;;;2.13;;
74995;SDS011;63545;51.690;5.202;2023-03-23T09:12:40;8.73;;;1.73;;
74995;SDS011;63545;51.690;5.202;2023-03-23T09:15:06;7.85;;;2.05;;
74995;SDS011;63545;51.690;5.202;2023-03-23T09:17:38;8.60;;;2.20;;
74995;SDS011;63545;51.690;5.202;2023-03-23T09:20:06;10.05;;;2.13;;
74995;SDS011;63545;51.690;5.202;2023-03-23T09:22:36;8.90;;;2.00;;
74995;SDS011;63545;51.690;5.202;2023-03-23T09:25:02;7.82;;;2.03;;
74995;SDS011;63545;51.690;5.202;2023-03-23T09:27:27;11.23;;;2.67;;
74995;SDS011;63545;51.690;5.202;2023-03-23T09:29:52;11.93;;;2.80;;
74995;SDS011;63545;51.690;5.202;2023-03-23T09:32:18;12.07;;;2.17;;
74995;SDS011;63545;51.690;5.202;2023-03-23T09:34:45;9.80;;;2.40;;
74995;SDS011;63545;51.690;5.202;2023-03-23T09:37:10;9.47;;;2.70;;
74995;SDS011;63545;51.690;5.202;2023-03-23T09:39:38;8.57;;;1.98;;
74995;SDS011;63545;51.690;5.202;2023-03-23T09:42:49;11.50;;;2.83;;
74995;SDS011;63545;51.690;5.202;2023-03-23T09:45:37;11.63;;;2.55;;
74995;SDS011;63545;51.690;5.202;2023-03-23T09:48:26;14.68;;;3.00;;
74995;SDS011;63545;51.690;5.202;2023-03-23T09:51:07;11.17;;;2.63;;
74995;SDS011;63545;51.690;5.202;2023-03-23T09:53:37;14.73;;;2.85;;
74995;SDS011;63545;51.690;5.202;2023-03-23T09:56:08;8.43;;;2.40;;
74995;SDS011;63545;51.690;5.202;2023-03-23T09:58:57;9.68;;;2.38;;
74995;SDS011;63545;51.690;5.202;2023-03-23T10:01:25;12.60;;;3.03;;
74995;SDS011;63545;51.690;5.202;2023-03-23T10:03:55;13.37;;;3.20;;
74995;SDS011;63545;51.690;5.202;2023-03-23T10:06:27;13.35;;;2.65;;
74995;SDS011;63545;51.690;5.202;2023-03-23T10:08:55;11.88;;;2.83;;
74995;SDS011;63545;51.690;5.202;2023-03-23T10:14:00;10.73;;;3.00;;
74995;SDS011;63545;51.690;5.202;2023-03-23T10:16:55;13.53;;;3.30;;
74995;SDS011;63545;51.690;5.202;2023-03-23T10:22:04;12.35;;;3.03;;
74995;SDS011;63545;51.690;5.202;2023-03-23T10:24:35;11.48;;;3.17;;
74995;SDS011;63545;51.690;5.202;2023-03-23T10:29:42;11.30;;;2.97;;
74995;SDS011;63545;51.690;5.202;2023-03-23T10:32:15;14.88;;;3.10;;
74995;SDS011;63545;51.690;5.202;2023-03-23T10:34:56;11.23;;;2.95;;
74995;SDS011;63545;51.690;5.202;2023-03-23T10:37:31;9.98;;;2.80;;
74995;SDS011;63545;51.690;5.202;2023-03-23T10:40:01;14.32;;;3.33;;
74995;SDS011;63545;51.690;5.202;2023-03-23T10:42:29;8.43;;;2.77;;
74995;SDS011;63545;51.690;5.202;2023-03-23T10:44:57;12.90;;;3.45;;
74995;SDS011;63545;51.690;5.202;2023-03-23T10:47:24;11.25;;;3.05;;
74995;SDS011;63545;51.690;5.202;2023-03-23T10:49:54;11.63;;;3.23;;
74995;SDS011;63545;51.690;5.202;2023-03-23T10:52:33;10.35;;;2.97;;
74995;SDS011;63545;51.690;5.202;2023-03-23T10:57:32;9.40;;;2.83;;
74995;SDS011;63545;51.690;5.202;2023-03-23T11:00:41;8.47;;;2.83;;
74995;SDS011;63545;51.690;5.202;2023-03-23T11:05:31;8.07;;;2.70;;
74995;SDS011;63545;51.690;5.202;2023-03-23T11:08:00;12.98;;;3.08;;
74995;SDS011;63545;51.690;5.202;2023-03-23T11:10:27;8.00;;;2.55;;
74995;SDS011;63545;51.690;5.202;2023-03-23T11:13:00;9.37;;;2.90;;
74995;SDS011;63545;51.690;5.202;2023-03-23T11:17:58;9.43;;;3.10;;
74995;SDS011;63545;51.690;5.202;2023-03-23T11:20:26;10.40;;;2.97;;
74995;SDS011;63545;51.690;5.202;2023-03-23T11:22:53;11.80;;;2.97;;
74995;SDS011;63545;51.690;5.202;2023-03-23T11:25:20;14.95;;;2.95;;
74995;SDS011;63545;51.690;5.202;2023-03-23T11:27:46;9.45;;;2.90;;
74995;SDS011;63545;51.690;5.202;2023-03-23T11:32:37;11.05;;;2.60;;
74995;SDS011;63545;51.690;5.202;2023-03-23T11:35:04;8.90;;;2.40;;
74995;SDS011;63545;51.690;5.202;2023-03-23T11:37:40;8.50;;;2.87;;
74995;SDS011;63545;51.690;5.202;2023-03-23T11:53:57;7.75;;;2.42;;
74995;SDS011;63545;51.690;5.202;2023-03-23T11:59:02;7.32;;;2.00;;
74995;SDS011;63545;51.690;5.202;2023-03-23T12:07:13;5.38;;;2.28;;
74995;SDS011;63545;51.690;5.202;2023-03-23T12:12:15;6.60;;;2.50;;
74995;SDS011;63545;51.690;5.202;2023-03-23T12:30:57;8.80;;;2.75;;
74995;SDS011;63545;51.690;5.202;2023-03-23T12:45:50;8.07;;;2.10;;
74995;SDS011;63545;51.690;5.202;2023-03-23T12:48:19;7.60;;;1.95;;
74995;SDS011;63545;51.690;5.202;2023-03-23T12:53:25;6.63;;;2.40;;
74995;SDS011;63545;51.690;5.202;2023-03-23T12:56:04;7.40;;;2.50;;
74995;SDS011;63545;51.690;5.202;2023-03-23T12:58:34;8.05;;;3.17;;
74995;SDS011;63545;51.690;5.202;2023-03-23T13:03:54;8.30;;;2.67;;
74995;SDS011;63545;51.690;5.202;2023-03-23T13:09:02;4.70;;;2.22;;
74995;SDS011;63545;51.690;5.202;2023-03-23T13:11:33;8.70;;;2.40;;
74995;SDS011;63545;51.690;5.202;2023-03-23T13:14:03;12.40;;;3.03;;
74995;SDS011;63545;51.690;5.202;2023-03-23T13:17:22;5.67;;;2.50;;
74995;SDS011;63545;51.690;5.202;2023-03-23T13:22:33;8.73;;;2.90;;
74995;SDS011;63545;51.690;5.202;2023-03-23T13:25:02;6.88;;;2.50;;
74995;SDS011;63545;51.690;5.202;2023-03-23T13:27:33;11.82;;;2.45;;
74995;SDS011;63545;51.690;5.202;2023-03-23T13:29:58;8.20;;;2.70;;
74995;SDS011;63545;51.690;5.202;2023-03-23T13:32:34;8.90;;;2.80;;
74995;SDS011;63545;51.690;5.202;2023-03-23T13:35:05;12.23;;;3.08;;
74995;SDS011;63545;51.690;5.202;2023-03-23T13:37:40;9.02;;;2.95;;
74995;SDS011;63545;51.690;5.202;2023-03-23T13:42:36;9.00;;;2.50;;
74995;SDS011;63545;51.690;5.202;2023-03-23T13:47:43;10.35;;;2.75;;
74995;SDS011;63545;51.690;5.202;2023-03-23T13:50:31;7.97;;;1.92;;
74995;SDS011;63545;51.690;5.202;2023-03-23T13:53:00;9.18;;;2.35;;
74995;SDS011;63545;51.690;5.202;2023-03-23T14:08:36;8.68;;;2.20;;
74995;SDS011;63545;51.690;5.202;2023-03-23T14:11:22;9.00;;;2.30;;
74995;SDS011;63545;51.690;5.202;2023-03-23T14:13:56;10.52;;;2.70;;
74995;SDS011;63545;51.690;5.202;2023-03-23T14:16:25;8.27;;;2.40;;
74995;SDS011;63545;51.690;5.202;2023-03-23T14:18:57;11.73;;;2.85;;
74995;SDS011;63545;51.690;5.202;2023-03-23T14:23:52;10.83;;;2.10;;
74995;SDS011;63545;51.690;5.202;2023-03-23T14:26:20;12.00;;;2.90;;
74995;SDS011;63545;51.690;5.202;2023-03-23T14:28:49;10.03;;;2.53;;
74995;SDS011;63545;51.690;5.202;2023-03-23T14:31:20;9.52;;;2.40;;
74995;SDS011;63545;51.690;5.202;2023-03-23T14:33:48;10.43;;;2.58;;
74995;SDS011;63545;51.690;5.202;2023-03-23T14:36:18;12.40;;;2.95;;
74995;SDS011;63545;51.690;5.202;2023-03-23T14:38:45;7.53;;;2.65;;
74995;SDS011;63545;51.690;5.202;2023-03-23T14:41:10;9.90;;;2.70;;
74995;SDS011;63545;51.690;5.202;2023-03-23T14:43:36;10.57;;;2.67;;
74995;SDS011;63545;51.690;5.202;2023-03-23T14:46:05;10.73;;;2.63;;
74995;SDS011;63545;51.690;5.202;2023-03-23T14:48:32;5.82;;;2.38;;
74995;SDS011;63545;51.690;5.202;2023-03-23T14:50:58;8.53;;;2.20;;
74995;SDS011;63545;51.690;5.202;2023-03-23T14:53:32;8.90;;;2.38;;
74995;SDS011;63545;51.690;5.202;2023-03-23T14:55:59;9.73;;;2.55;;
74995;SDS011;63545;51.690;5.202;2023-03-23T14:58:27;12.63;;;3.00;;
74995;SDS011;63545;51.690;5.202;2023-03-23T15:00:59;10.53;;;2.70;;
74995;SDS011;63545;51.690;5.202;2023-03-23T15:03:26;9.82;;;2.53;;
74995;SDS011;63545;51.690;5.202;2023-03-23T15:05:57;10.45;;;2.42;;
74995;SDS011;63545;51.690;5.202;2023-03-23T15:08:28;10.02;;;2.60;;
74995;SDS011;63545;51.690;5.202;2023-03-23T15:11:12;9.85;;;2.78;;
74995;SDS011;63545;51.690;5.202;2023-03-23T15:13:47;10.30;;;2.50;;
74995;SDS011;63545;51.690;5.202;2023-03-23T15:16:21;10.07;;;2.55;;
74995;SDS011;63545;51.690;5.202;2023-03-23T15:18:51;8.88;;;2.28;;
74995;SDS011;63545;51.690;5.202;2023-03-23T15:21:46;7.13;;;2.13;;
74995;SDS011;63545;51.690;5.202;2023-03-23T15:27:15;11.20;;;2.50;;
74995;SDS011;63545;51.690;5.202;2023-03-23T15:29:55;10.57;;;2.35;;
74995;SDS011;63545;51.690;5.202;2023-03-23T15:32:30;10.63;;;2.42;;
74995;SDS011;63545;51.690;5.202;2023-03-23T15:34:57;8.05;;;2.53;;
74995;SDS011;63545;51.690;5.202;2023-03-23T15:37:30;6.95;;;2.08;;
74995;SDS011;63545;51.690;5.202;2023-03-23T15:39:56;9.23;;;2.70;;
74995;SDS011;63545;51.690;5.202;2023-03-23T15:45:34;7.00;;;2.35;;
74995;SDS011;63545;51.690;5.202;2023-03-23T15:47:45;7.30;;;2.38;;
74995;SDS011;63545;51.690;5.202;2023-03-23T15:52:53;6.87;;;2.43;;
74995;SDS011;63545;51.690;5.202;2023-03-23T15:57:52;6.13;;;2.30;;
74995;SDS011;63545;51.690;5.202;2023-03-23T16:00:19;6.50;;;1.73;;
74995;SDS011;63545;51.690;5.202;2023-03-23T16:02:55;5.82;;;2.17;;
74995;SDS011;63545;51.690;5.202;2023-03-23T16:05:22;8.55;;;2.10;;
74995;SDS011;63545;51.690;5.202;2023-03-23T16:07:48;9.03;;;2.17;;
74995;SDS011;63545;51.690;5.202;2023-03-23T16:10:18;8.70;;;1.92;;
74995;SDS011;63545;51.690;5.202;2023-03-23T16:12:45;8.80;;;2.10;;
74995;SDS011;63545;51.690;5.202;2023-03-23T16:15:11;8.50;;;2.20;;
74995;SDS011;63545;51.690;5.202;2023-03-23T16:17:37;8.00;;;2.20;;
74995;SDS011;63545;51.690;5.202;2023-03-23T16:20:24;6.87;;;1.90;;
74995;SDS011;63545;51.690;5.202;2023-03-23T16:22:49;8.93;;;2.45;;
74995;SDS011;63545;51.690;5.202;2023-03-23T16:25:15;9.43;;;2.22;;
74995;SDS011;63545;51.690;5.202;2023-03-23T16:27:43;10.48;;;2.38;;
74995;SDS011;63545;51.690;5.202;2023-03-23T16:30:15;7.68;;;2.47;;
74995;SDS011;63545;51.690;5.202;2023-03-23T16:32:45;11.43;;;2.53;;
74995;SDS011;63545;51.690;5.202;2023-03-23T16:35:11;9.20;;;2.50;;
74995;SDS011;63545;51.690;5.202;2023-03-23T16:37:37;9.23;;;2.57;;
74995;SDS011;63545;51.690;5.202;2023-03-23T16:40:04;6.32;;;2.30;;
74995;SDS011;63545;51.690;5.202;2023-03-23T16:42:31;9.43;;;2.15;;
74995;SDS011;63545;51.690;5.202;2023-03-23T16:44:56;8.93;;;1.93;;
74995;SDS011;63545;51.690;5.202;2023-03-23T16:47:21;9.33;;;2.47;;
74995;SDS011;63545;51.690;5.202;2023-03-23T16:49:49;9.63;;;2.63;;
74995;SDS011;63545;51.690;5.202;2023-03-23T16:52:15;8.75;;;2.40;;
74995;SDS011;63545;51.690;5.202;2023-03-23T16:54:40;8.80;;;2.63;;
74995;SDS011;63545;51.690;5.202;2023-03-23T16:57:06;9.80;;;2.53;;
74995;SDS011;63545;51.690;5.202;2023-03-23T16:59:31;11.30;;;2.80;;
74995;SDS011;63545;51.690;5.202;2023-03-23T17:01:57;11.80;;;3.05;;
74995;SDS011;63545;51.690;5.202;2023-03-23T17:04:27;11.90;;;2.70;;
74995;SDS011;63545;51.690;5.202;2023-03-23T17:06:53;5.57;;;2.13;;